sensor_id;sensor_type;location;lat;lon;timestamp;pressure;altitude;pressure_sealevel;temperature;humidity
51759;BME280;66684;47.568;18.734;2023-01-25T00:01:57;101002.72;;;-0.08;100.00
51759;BME280;66684;47.568;18.734;2023-01-25T00:04:23;101008.50;;;-0.33;100.00
51759;BME280;66684;47.568;18.734;2023-01-25T00:06:50;101008.19;;;-0.36;100.00
51759;BME280;66684;47.568;18.734;2023-01-25T00:09:16;101015.12;;;-0.27;100.00
51759;BME280;66684;47.568;18.734;2023-01-25T00:11:43;101020.69;;;-0.22;100.00
51759;BME280;66684;47.568;18.734;2023-01-25T00:14:10;101025.38;;;-0.18;100.00
51759;BME280;66684;47.568;18.734;2023-01-25T00:16:36;101031.41;;;-0.09;100.00
51759;BME280;66684;47.568;18.734;2023-01-25T00:19:03;101031.75;;;-0.06;100.00
51759;BME280;66684;47.568;18.734;2023-01-25T00:21:29;101034.59;;;-0.03;100.00
51759;BME280;66684;47.568;18.734;2023-01-25T00:23:55;101028.72;;;-0.10;100.00
51759;BME280;66684;47.568;18.734;2023-01-25T00:26:21;101028.66;;;-0.19;100.00
51759;BME280;66684;47.568;18.734;2023-01-25T00:28:52;101039.72;;;-0.18;100.00
51759;BME280;66684;47.568;18.734;2023-01-25T00:34:09;101039.97;;;-0.24;100.00
51759;BME280;66684;47.568;18.734;2023-01-25T00:36:45;101036.59;;;-0.32;100.00
51759;BME280;66684;47.568;18.734;2023-01-25T00:39:12;101039.81;;;-0.41;100.00
51759;BME280;66684;47.568;18.734;2023-01-25T00:41:38;101050.28;;;-0.38;100.00
51759;BME280;66684;47.568;18.734;2023-01-25T00:44:05;101047.41;;;-0.25;100.00
51759;BME280;66684;47.568;18.734;2023-01-25T00:46:31;101039.97;;;-0.24;100.00
51759;BME280;66684;47.568;18.734;2023-01-25T00:48:57;101043.66;;;-0.29;100.00
51759;BME280;66684;47.568;18.734;2023-01-25T00:51:23;101041.69;;;-0.47;100.00
51759;BME280;66684;47.568;18.734;2023-01-25T00:53:50;101039.88;;;-0.80;100.00
51759;BME280;66684;47.568;18.734;2023-01-25T00:56:16;101043.41;;;-0.71;100.00
51759;BME280;66684;47.568;18.734;2023-01-25T00:58:42;101049.25;;;-0.56;100.00
51759;BME280;66684;47.568;18.734;2023-01-25T01:01:09;101053.72;;;-0.53;100.00
51759;BME280;66684;47.568;18.734;2023-01-25T01:03:35;101055.53;;;-0.68;100.00
51759;BME280;66684;47.568;18.734;2023-01-25T01:06:07;101053.31;;;-0.65;100.00
51759;BME280;66684;47.568;18.734;2023-01-25T01:08:35;101051.34;;;-0.84;100.00
51759;BME280;66684;47.568;18.734;2023-01-25T01:11:04;101053.28;;;-0.97;100.00
51759;BME280;66684;47.568;18.734;2023-01-25T01:13:31;101042.22;;;-0.97;100.00
51759;BME280;66684;47.568;18.734;2023-01-25T01:16:00;101044.31;;;-0.86;100.00
51759;BME280;66684;47.568;18.734;2023-01-25T01:18:28;101047.47;;;-0.96;100.00
51759;BME280;66684;47.568;18.734;2023-01-25T01:20:57;101044.31;;;-0.86;100.00
51759;BME280;66684;47.568;18.734;2023-01-25T01:23:23;101047.75;;;-0.86;100.00
51759;BME280;66684;47.568;18.734;2023-01-25T01:25:49;101052.59;;;-1.03;100.00
51759;BME280;66684;47.568;18.734;2023-01-25T01:28:15;101054.16;;;-0.96;100.00
51759;BME280;66684;47.568;18.734;2023-01-25T01:30:41;101061.63;;;-1.21;100.00
51759;BME280;66684;47.568;18.734;2023-01-25T01:33:07;101056.69;;;-1.12;100.00
51759;BME280;66684;47.568;18.734;2023-01-25T01:35:33;101051.34;;;-1.22;100.00
51759;BME280;66684;47.568;18.734;2023-01-25T01:37:59;101043.81;;;-1.14;100.00
51759;BME280;66684;47.568;18.734;2023-01-25T01:40:25;101053.66;;;-1.17;100.00
51759;BME280;66684;47.568;18.734;2023-01-25T01:42:57;101056.47;;;-1.29;100.00
51759;BME280;66684;47.568;18.734;2023-01-25T01:48:37;101048.97;;;-1.21;100.00
51759;BME280;66684;47.568;18.734;2023-01-25T01:53:44;101049.25;;;-1.11;100.00
51759;BME280;66684;47.568;18.734;2023-01-25T01:56:14;101053.25;;;-1.13;100.00
51759;BME280;66684;47.568;18.734;2023-01-25T01:58:42;101050.66;;;-1.05;100.00
51759;BME280;66684;47.568;18.734;2023-01-25T02:01:08;101049.97;;;-1.12;100.00
51759;BME280;66684;47.568;18.734;2023-01-25T02:03:35;101045.97;;;-1.32;100.00
51759;BME280;66684;47.568;18.734;2023-01-25T02:06:06;101041.19;;;-1.45;100.00
51759;BME280;66684;47.568;18.734;2023-01-25T02:08:35;101037.28;;;-1.50;100.00
51759;BME280;66684;47.568;18.734;2023-01-25T02:11:03;101030.69;;;-1.71;100.00
51759;BME280;66684;47.568;18.734;2023-01-25T02:13:30;101036.72;;;-1.78;100.00
51759;BME280;66684;47.568;18.734;2023-01-25T02:15:57;101034.81;;;-1.65;100.00
51759;BME280;66684;47.568;18.734;2023-01-25T02:18:23;101044.75;;;-1.36;100.00
51759;BME280;66684;47.568;18.734;2023-01-25T02:20:51;101048.69;;;-1.31;100.00
51759;BME280;66684;47.568;18.734;2023-01-25T02:25:48;101043.63;;;-1.54;100.00
51759;BME280;66684;47.568;18.734;2023-01-25T02:28:22;101052.84;;;-1.54;100.00
51759;BME280;66684;47.568;18.734;2023-01-25T02:30:49;101047.84;;;-1.61;100.00
51759;BME280;66684;47.568;18.734;2023-01-25T02:33:15;101042.03;;;-1.60;100.00
51759;BME280;66684;47.568;18.734;2023-01-25T02:35:51;101040.31;;;-1.69;100.00
51759;BME280;66684;47.568;18.734;2023-01-25T02:38:19;101039.50;;;-1.60;100.00
51759;BME280;66684;47.568;18.734;2023-01-25T02:40:56;101032.34;;;-1.72;100.00
51759;BME280;66684;47.568;18.734;2023-01-25T02:43:27;101024.00;;;-1.71;100.00
51759;BME280;66684;47.568;18.734;2023-01-25T02:45:59;101022.63;;;-1.83;100.00
51759;BME280;66684;47.568;18.734;2023-01-25T02:48:25;101024.56;;;-1.73;100.00
51759;BME280;66684;47.568;18.734;2023-01-25T02:50:51;101012.84;;;-1.80;100.00
51759;BME280;66684;47.568;18.734;2023-01-25T02:53:17;101009.34;;;-1.96;100.00
51759;BME280;66684;47.568;18.734;2023-01-25T02:55:43;101005.41;;;-1.78;100.00
51759;BME280;66684;47.568;18.734;2023-01-25T02:58:09;101011.28;;;-1.64;100.00
51759;BME280;66684;47.568;18.734;2023-01-25T03:00:35;101008.41;;;-1.67;100.00
51759;BME280;66684;47.568;18.734;2023-01-25T03:03:01;101005.88;;;-1.67;100.00
51759;BME280;66684;47.568;18.734;2023-01-25T03:05:27;101003.56;;;-1.72;100.00
51759;BME280;66684;47.568;18.734;2023-01-25T03:07:53;101008.91;;;-1.85;100.00
51759;BME280;66684;47.568;18.734;2023-01-25T03:10:19;100991.25;;;-1.69;100.00
51759;BME280;66684;47.568;18.734;2023-01-25T03:12:45;100994.69;;;-1.69;100.00
51759;BME280;66684;47.568;18.734;2023-01-25T03:15:11;101000.38;;;-1.55;100.00
51759;BME280;66684;47.568;18.734;2023-01-25T03:17:36;100996.31;;;-1.46;100.00
51759;BME280;66684;47.568;18.734;2023-01-25T03:20:02;101004.62;;;-1.47;100.00
51759;BME280;66684;47.568;18.734;2023-01-25T03:22:30;100995.69;;;-1.59;100.00
51759;BME280;66684;47.568;18.734;2023-01-25T03:24:56;100987.41;;;-1.66;100.00
51759;BME280;66684;47.568;18.734;2023-01-25T03:27:22;100995.97;;;-1.49;100.00
51759;BME280;66684;47.568;18.734;2023-01-25T03:29:48;100992.47;;;-1.43;100.00
51759;BME280;66684;47.568;18.734;2023-01-25T03:32:14;100999.50;;;-1.86;100.00
51759;BME280;66684;47.568;18.734;2023-01-25T03:34:40;100991.06;;;-2.24;100.00
51759;BME280;66684;47.568;18.734;2023-01-25T03:37:06;100995.31;;;-2.38;100.00
51759;BME280;66684;47.568;18.734;2023-01-25T03:39:32;100993.28;;;-2.34;100.00
51759;BME280;66684;47.568;18.734;2023-01-25T03:41:58;101000.00;;;-2.41;100.00
51759;BME280;66684;47.568;18.734;2023-01-25T03:44:23;100996.31;;;-2.29;100.00
51759;BME280;66684;47.568;18.734;2023-01-25T03:46:49;100991.34;;;-2.06;100.00
51759;BME280;66684;47.568;18.734;2023-01-25T03:49:15;100995.50;;;-2.14;100.00
51759;BME280;66684;47.568;18.734;2023-01-25T03:51:43;100999.22;;;-2.33;100.00
51759;BME280;66684;47.568;18.734;2023-01-25T03:54:08;100990.44;;;-2.44;100.00
51759;BME280;66684;47.568;18.734;2023-01-25T03:56:36;100997.22;;;-2.29;100.00
51759;BME280;66684;47.568;18.734;2023-01-25T03:59:02;100998.28;;;-2.20;100.00
51759;BME280;66684;47.568;18.734;2023-01-25T04:01:28;100994.66;;;-2.22;100.00
51759;BME280;66684;47.568;18.734;2023-01-25T04:03:54;100989.53;;;-2.07;100.00
51759;BME280;66684;47.568;18.734;2023-01-25T04:06:20;100992.72;;;-2.01;100.00
51759;BME280;66684;47.568;18.734;2023-01-25T04:08:46;100981.19;;;-2.06;100.00
51759;BME280;66684;47.568;18.734;2023-01-25T04:11:12;100981.94;;;-2.07;100.00
51759;BME280;66684;47.568;18.734;2023-01-25T04:13:38;100984.94;;;-2.26;100.00
51759;BME280;66684;47.568;18.734;2023-01-25T04:16:08;100979.03;;;-2.10;100.00
51759;BME280;66684;47.568;18.734;2023-01-25T04:18:36;100982.87;;;-1.91;100.00
51759;BME280;66684;47.568;18.734;2023-01-25T04:21:03;100983.16;;;-2.04;100.00
51759;BME280;66684;47.568;18.734;2023-01-25T04:23:29;100982.09;;;-2.06;100.00
51759;BME280;66684;47.568;18.734;2023-01-25T04:25:57;100996.03;;;-2.09;100.00
51759;BME280;66684;47.568;18.734;2023-01-25T04:28:23;100993.66;;;-2.08;100.00
51759;BME280;66684;47.568;18.734;2023-01-25T04:30:49;100990.25;;;-2.38;100.00
51759;BME280;66684;47.568;18.734;2023-01-25T04:33:16;100985.28;;;-2.67;100.00
51759;BME280;66684;47.568;18.734;2023-01-25T04:35:42;100988.75;;;-2.74;100.00
51759;BME280;66684;47.568;18.734;2023-01-25T04:38:09;100985.66;;;-2.71;100.00
51759;BME280;66684;47.568;18.734;2023-01-25T04:40:35;100980.44;;;-2.73;100.00
51759;BME280;66684;47.568;18.734;2023-01-25T04:43:02;100986.78;;;-2.32;100.00
51759;BME280;66684;47.568;18.734;2023-01-25T04:45:28;100978.25;;;-2.02;100.00
51759;BME280;66684;47.568;18.734;2023-01-25T04:47:55;100980.41;;;-1.98;100.00
51759;BME280;66684;47.568;18.734;2023-01-25T04:50:22;100979.69;;;-1.97;100.00
51759;BME280;66684;47.568;18.734;2023-01-25T04:52:48;100969.53;;;-1.97;100.00
51759;BME280;66684;47.568;18.734;2023-01-25T04:55:14;100971.22;;;-2.05;100.00
51759;BME280;66684;47.568;18.734;2023-01-25T04:57:40;100969.59;;;-2.04;100.00
51759;BME280;66684;47.568;18.734;2023-01-25T05:00:08;100975.81;;;-2.17;100.00
51759;BME280;66684;47.568;18.734;2023-01-25T05:02:34;100963.16;;;-2.17;100.00
51759;BME280;66684;47.568;18.734;2023-01-25T05:05:00;100960.53;;;-2.02;100.00
51759;BME280;66684;47.568;18.734;2023-01-25T05:07:26;100961.31;;;-2.10;100.00
51759;BME280;66684;47.568;18.734;2023-01-25T05:09:52;100957.09;;;-2.03;100.00
51759;BME280;66684;47.568;18.734;2023-01-25T05:12:18;100963.91;;;-2.18;100.00
51759;BME280;66684;47.568;18.734;2023-01-25T05:14:44;100971.50;;;-2.18;100.00
51759;BME280;66684;47.568;18.734;2023-01-25T05:17:09;100975.19;;;-2.30;100.00
51759;BME280;66684;47.568;18.734;2023-01-25T05:19:35;100982.53;;;-2.54;100.00
51759;BME280;66684;47.568;18.734;2023-01-25T05:22:02;100976.06;;;-2.66;100.00
51759;BME280;66684;47.568;18.734;2023-01-25T05:24:33;100980.81;;;-2.84;100.00
51759;BME280;66684;47.568;18.734;2023-01-25T05:27:00;100993.47;;;-2.84;100.00
51759;BME280;66684;47.568;18.734;2023-01-25T05:29:33;100999.44;;;-2.90;100.00
51759;BME280;66684;47.568;18.734;2023-01-25T05:32:17;100999.81;;;-2.87;100.00
51759;BME280;66684;47.568;18.734;2023-01-25T05:34:44;101000.13;;;-2.70;100.00
51759;BME280;66684;47.568;18.734;2023-01-25T05:37:12;101000.97;;;-2.55;100.00
51759;BME280;66684;47.568;18.734;2023-01-25T05:39:38;101006.03;;;-2.55;100.00
51759;BME280;66684;47.568;18.734;2023-01-25T05:42:13;101004.19;;;-2.49;100.00
51759;BME280;66684;47.568;18.734;2023-01-25T05:44:39;101005.91;;;-2.78;100.00
51759;BME280;66684;47.568;18.734;2023-01-25T05:47:06;101013.63;;;-2.55;100.00
51759;BME280;66684;47.568;18.734;2023-01-25T05:49:33;101006.31;;;-2.38;100.00
51759;BME280;66684;47.568;18.734;2023-01-25T05:51:59;101002.84;;;-2.68;100.00
51759;BME280;66684;47.568;18.734;2023-01-25T05:54:25;101005.56;;;-2.74;100.00
51759;BME280;66684;47.568;18.734;2023-01-25T05:56:50;101008.28;;;-2.80;100.00
51759;BME280;66684;47.568;18.734;2023-01-25T05:59:16;101003.69;;;-3.19;100.00
51759;BME280;66684;47.568;18.734;2023-01-25T06:01:43;101005.84;;;-3.30;100.00
51759;BME280;66684;47.568;18.734;2023-01-25T06:04:13;101002.78;;;-3.20;100.00
51759;BME280;66684;47.568;18.734;2023-01-25T06:06:40;101000.41;;;-3.04;100.00
51759;BME280;66684;47.568;18.734;2023-01-25T06:09:06;101001.47;;;-3.09;100.00
51759;BME280;66684;47.568;18.734;2023-01-25T06:11:32;101006.22;;;-3.27;100.00
51759;BME280;66684;47.568;18.734;2023-01-25T06:13:58;101005.09;;;-3.07;100.00
51759;BME280;66684;47.568;18.734;2023-01-25T06:16:24;101013.00;;;-2.97;100.00
51759;BME280;66684;47.568;18.734;2023-01-25T06:18:49;101013.75;;;-2.98;100.00
51759;BME280;66684;47.568;18.734;2023-01-25T06:21:15;101014.44;;;-2.85;100.00
51759;BME280;66684;47.568;18.734;2023-01-25T06:23:41;101021.59;;;-2.66;100.00
51759;BME280;66684;47.568;18.734;2023-01-25T06:26:11;101014.00;;;-2.59;100.00
51759;BME280;66684;47.568;18.734;2023-01-25T06:28:37;101018.66;;;-2.48;100.00
51759;BME280;66684;47.568;18.734;2023-01-25T06:31:08;101026.22;;;-2.41;100.00
51759;BME280;66684;47.568;18.734;2023-01-25T06:33:36;101026.72;;;-2.29;100.00
51759;BME280;66684;47.568;18.734;2023-01-25T06:36:04;101028.78;;;-2.48;100.00
51759;BME280;66684;47.568;18.734;2023-01-25T06:38:31;101023.09;;;-2.31;100.00
51759;BME280;66684;47.568;18.734;2023-01-25T06:40:59;101023.16;;;-2.46;100.00
51759;BME280;66684;47.568;18.734;2023-01-25T06:43:28;101032.44;;;-2.60;100.00
51759;BME280;66684;47.568;18.734;2023-01-25T06:46:02;101024.38;;;-2.35;100.00
51759;BME280;66684;47.568;18.734;2023-01-25T06:48:30;101030.41;;;-2.11;100.00
51759;BME280;66684;47.568;18.734;2023-01-25T06:50:57;101031.41;;;-1.95;100.00
51759;BME280;66684;47.568;18.734;2023-01-25T06:53:28;101023.31;;;-2.00;100.00
51759;BME280;66684;47.568;18.734;2023-01-25T06:55:57;101020.00;;;-1.92;100.00
51759;BME280;66684;47.568;18.734;2023-01-25T06:58:24;101023.63;;;-1.97;100.00
51759;BME280;66684;47.568;18.734;2023-01-25T07:00:50;101023.84;;;-2.02;100.00
51759;BME280;66684;47.568;18.734;2023-01-25T07:03:17;101020.41;;;-1.73;100.00
51759;BME280;66684;47.568;18.734;2023-01-25T07:05:43;101013.88;;;-1.48;100.00
51759;BME280;66684;47.568;18.734;2023-01-25T07:08:09;101019.03;;;-1.32;100.00
51759;BME280;66684;47.568;18.734;2023-01-25T07:10:34;101020.41;;;-1.27;100.00
51759;BME280;66684;47.568;18.734;2023-01-25T07:13:00;101021.94;;;-1.36;100.00
51759;BME280;66684;47.568;18.734;2023-01-25T07:15:26;101023.81;;;-1.42;100.00
51759;BME280;66684;47.568;18.734;2023-01-25T07:17:52;101017.19;;;-1.33;100.00
51759;BME280;66684;47.568;18.734;2023-01-25T07:20:18;101015.91;;;-1.52;100.00
51759;BME280;66684;47.568;18.734;2023-01-25T07:22:44;101018.84;;;-1.56;100.00
51759;BME280;66684;47.568;18.734;2023-01-25T07:25:10;101005.78;;;-1.14;100.00
51759;BME280;66684;47.568;18.734;2023-01-25T07:27:36;101007.34;;;-1.07;100.00
51759;BME280;66684;47.568;18.734;2023-01-25T07:30:02;101006.66;;;-1.29;100.00
51759;BME280;66684;47.568;18.734;2023-01-25T07:32:28;101010.37;;;-1.41;100.00
51759;BME280;66684;47.568;18.734;2023-01-25T07:34:54;101007.16;;;-1.24;100.00
51759;BME280;66684;47.568;18.734;2023-01-25T07:37:20;101005.81;;;-0.98;100.00
51759;BME280;66684;47.568;18.734;2023-01-25T07:39:46;101011.47;;;-1.00;100.00
51759;BME280;66684;47.568;18.734;2023-01-25T07:42:15;101010.81;;;-1.06;100.00
51759;BME280;66684;47.568;18.734;2023-01-25T07:44:41;101003.13;;;-0.99;100.00
51759;BME280;66684;47.568;18.734;2023-01-25T07:47:06;101010.00;;;-0.98;100.00
51759;BME280;66684;47.568;18.734;2023-01-25T07:49:32;101008.19;;;-0.99;100.00
51759;BME280;66684;47.568;18.734;2023-01-25T07:51:58;101009.31;;;-1.04;100.00
51759;BME280;66684;47.568;18.734;2023-01-25T07:54:24;101009.66;;;-1.01;100.00
51759;BME280;66684;47.568;18.734;2023-01-25T07:56:50;101006.94;;;-1.03;100.00
51759;BME280;66684;47.568;18.734;2023-01-25T07:59:16;101011.62;;;-0.83;100.00
51759;BME280;66684;47.568;18.734;2023-01-25T08:01:42;101006.25;;;-0.55;100.00
51759;BME280;66684;47.568;18.734;2023-01-25T08:04:08;101008.22;;;-0.68;100.00
51759;BME280;66684;47.568;18.734;2023-01-25T08:06:36;101003.56;;;-0.56;100.00
51759;BME280;66684;47.568;18.734;2023-01-25T08:09:10;101008.03;;;-0.53;100.00
51759;BME280;66684;47.568;18.734;2023-01-25T08:11:36;100998.81;;;-0.69;100.00
51759;BME280;66684;47.568;18.734;2023-01-25T08:14:02;101001.56;;;-0.90;100.00
51759;BME280;66684;47.568;18.734;2023-01-25T08:16:30;101000.50;;;-0.76;100.00
51759;BME280;66684;47.568;18.734;2023-01-25T08:18:58;101005.69;;;-0.68;100.00
51759;BME280;66684;47.568;18.734;2023-01-25T08:21:25;101003.28;;;-0.50;100.00
51759;BME280;66684;47.568;18.734;2023-01-25T08:23:58;101005.41;;;-0.46;100.00
51759;BME280;66684;47.568;18.734;2023-01-25T08:26:25;101009.19;;;-0.43;100.00
51759;BME280;66684;47.568;18.734;2023-01-25T08:28:52;101003.22;;;-0.59;100.00
51759;BME280;66684;47.568;18.734;2023-01-25T08:31:21;101002.22;;;-0.52;100.00
51759;BME280;66684;47.568;18.734;2023-01-25T08:33:48;101004.25;;;-0.41;100.00
51759;BME280;66684;47.568;18.734;2023-01-25T08:36:15;101002.91;;;-0.22;100.00
51759;BME280;66684;47.568;18.734;2023-01-25T08:38:45;101002.72;;;-0.08;100.00
51759;BME280;66684;47.568;18.734;2023-01-25T08:41:16;101004.62;;;0.11;100.00
51759;BME280;66684;47.568;18.734;2023-01-25T08:43:44;101003.59;;;0.09;100.00
51759;BME280;66684;47.568;18.734;2023-01-25T08:46:11;101002.47;;;-0.02;100.00
51759;BME280;66684;47.568;18.734;2023-01-25T08:48:37;101005.16;;;-0.01;100.00
51759;BME280;66684;47.568;18.734;2023-01-25T08:51:03;100993.94;;;0.22;100.00
51759;BME280;66684;47.568;18.734;2023-01-25T08:53:30;100998.22;;;0.39;100.00
51759;BME280;66684;47.568;18.734;2023-01-25T08:56:04;100994.19;;;0.74;100.00
51759;BME280;66684;47.568;18.734;2023-01-25T08:58:30;100983.44;;;0.85;100.00
51759;BME280;66684;47.568;18.734;2023-01-25T09:01:01;100983.44;;;0.76;100.00
51759;BME280;66684;47.568;18.734;2023-01-25T09:03:28;100989.72;;;0.80;100.00
51759;BME280;66684;47.568;18.734;2023-01-25T09:05:54;100987.62;;;0.76;100.00
51759;BME280;66684;47.568;18.734;2023-01-25T09:08:20;100983.16;;;0.99;100.00
51759;BME280;66684;47.568;18.734;2023-01-25T09:10:46;100981.22;;;0.97;100.00
51759;BME280;66684;47.568;18.734;2023-01-25T09:13:11;100981.09;;;1.13;100.00
51759;BME280;66684;47.568;18.734;2023-01-25T09:15:39;100973.03;;;1.17;100.00
51759;BME280;66684;47.568;18.734;2023-01-25T09:18:05;100981.00;;;1.20;100.00
51759;BME280;66684;47.568;18.734;2023-01-25T09:20:31;100985.19;;;1.28;100.00
51759;BME280;66684;47.568;18.734;2023-01-25T09:22:57;100983.25;;;1.34;100.00
51759;BME280;66684;47.568;18.734;2023-01-25T09:25:23;100986.84;;;1.36;100.00
51759;BME280;66684;47.568;18.734;2023-01-25T09:27:49;100989.84;;;1.41;100.00
51759;BME280;66684;47.568;18.734;2023-01-25T09:30:16;100990.31;;;1.45;100.00
51759;BME280;66684;47.568;18.734;2023-01-25T09:32:43;100985.34;;;1.55;100.00
51759;BME280;66684;47.568;18.734;2023-01-25T09:35:09;100977.09;;;1.49;100.00
51759;BME280;66684;47.568;18.734;2023-01-25T09:37:35;100980.25;;;1.55;100.00
51759;BME280;66684;47.568;18.734;2023-01-25T09:40:01;100978.59;;;1.47;100.00
51759;BME280;66684;47.568;18.734;2023-01-25T09:45:25;100972.47;;;1.45;100.00
51759;BME280;66684;47.568;18.734;2023-01-25T09:50:47;100957.16;;;1.62;100.00
51759;BME280;66684;47.568;18.734;2023-01-25T09:53:31;100959.56;;;1.70;100.00
51759;BME280;66684;47.568;18.734;2023-01-25T09:56:32;100960.47;;;1.61;100.00
51759;BME280;66684;47.568;18.734;2023-01-25T09:58:59;100961.22;;;1.78;100.00
51759;BME280;66684;47.568;18.734;2023-01-25T10:04:21;100953.97;;;2.00;100.00
51759;BME280;66684;47.568;18.734;2023-01-25T10:06:53;100945.06;;;2.13;100.00
51759;BME280;66684;47.568;18.734;2023-01-25T10:09:29;100947.12;;;2.35;100.00
51759;BME280;66684;47.568;18.734;2023-01-25T10:12:15;100937.78;;;2.44;100.00
51759;BME280;66684;47.568;18.734;2023-01-25T10:14:43;100935.41;;;2.37;100.00
51759;BME280;66684;47.568;18.734;2023-01-25T10:17:39;100923.09;;;2.41;100.00
51759;BME280;66684;47.568;18.734;2023-01-25T10:23:08;100919.31;;;2.10;100.00
51759;BME280;66684;47.568;18.734;2023-01-25T10:25:44;100916.31;;;2.14;100.00
51759;BME280;66684;47.568;18.734;2023-01-25T10:33:17;100899.50;;;2.44;100.00
51759;BME280;66684;47.568;18.734;2023-01-25T10:35:46;100905.56;;;2.63;100.00
51759;BME280;66684;47.568;18.734;2023-01-25T10:38:18;100897.44;;;2.40;100.00
51759;BME280;66684;47.568;18.734;2023-01-25T10:40:45;100901.16;;;2.52;100.00
51759;BME280;66684;47.568;18.734;2023-01-25T10:43:17;100899.50;;;2.53;100.00
51759;BME280;66684;47.568;18.734;2023-01-25T10:45:43;100898.66;;;2.62;100.00
51759;BME280;66684;47.568;18.734;2023-01-25T10:48:20;100889.56;;;2.28;100.00
51759;BME280;66684;47.568;18.734;2023-01-25T10:50:56;100887.78;;;2.19;100.00
51759;BME280;66684;47.568;18.734;2023-01-25T10:53:26;100882.53;;;2.17;100.00
51759;BME280;66684;47.568;18.734;2023-01-25T11:01:03;100878.06;;;2.14;100.00
51759;BME280;66684;47.568;18.734;2023-01-25T11:03:38;100876.16;;;2.03;100.00
51759;BME280;66684;47.568;18.734;2023-01-25T11:06:06;100866.03;;;2.13;100.00
51759;BME280;66684;47.568;18.734;2023-01-25T11:08:41;100873.78;;;1.96;100.00
51759;BME280;66684;47.568;18.734;2023-01-25T11:13:56;100861.88;;;2.05;100.00
51759;BME280;66684;47.568;18.734;2023-01-25T11:16:35;100863.22;;;2.10;100.00
51759;BME280;66684;47.568;18.734;2023-01-25T11:19:09;100847.97;;;2.02;100.00
51759;BME280;66684;47.568;18.734;2023-01-25T11:21:55;100848.62;;;1.82;100.00
51759;BME280;66684;47.568;18.734;2023-01-25T11:24:26;100854.28;;;1.88;100.00
51759;BME280;66684;47.568;18.734;2023-01-25T11:27:21;100840.16;;;1.64;100.00
51759;BME280;66684;47.568;18.734;2023-01-25T11:30:07;100846.72;;;1.71;100.00
51759;BME280;66684;47.568;18.734;2023-01-25T11:32:35;100829.13;;;1.91;100.00
51759;BME280;66684;47.568;18.734;2023-01-25T11:35:04;100821.84;;;2.04;100.00
51759;BME280;66684;47.568;18.734;2023-01-25T11:40:29;100816.25;;;1.81;100.00
51759;BME280;66684;47.568;18.734;2023-01-25T11:44:11;100817.91;;;1.80;100.00
51759;BME280;66684;47.568;18.734;2023-01-25T11:49:00;100802.66;;;2.08;100.00
51759;BME280;66684;47.568;18.734;2023-01-25T11:51:45;100790.63;;;2.15;100.00
51759;BME280;66684;47.568;18.734;2023-01-25T12:00:06;100780.31;;;2.33;100.00
51759;BME280;66684;47.568;18.734;2023-01-25T12:09:02;100762.31;;;2.31;100.00
51759;BME280;66684;47.568;18.734;2023-01-25T12:15:01;100741.50;;;1.99;100.00
51759;BME280;66684;47.568;18.734;2023-01-25T12:25:57;100733.38;;;2.68;100.00
51759;BME280;66684;47.568;18.734;2023-01-25T12:28:36;100733.50;;;2.51;100.00
51759;BME280;66684;47.568;18.734;2023-01-25T12:31:12;100738.09;;;2.17;100.00
51759;BME280;66684;47.568;18.734;2023-01-25T12:34:02;100732.94;;;2.26;100.00
51759;BME280;66684;47.568;18.734;2023-01-25T12:36:44;100728.59;;;2.44;100.00
51759;BME280;66684;47.568;18.734;2023-01-25T12:39:20;100727.78;;;2.35;100.00
51759;BME280;66684;47.568;18.734;2023-01-25T12:42:01;100729.38;;;2.62;100.00
51759;BME280;66684;47.568;18.734;2023-01-25T12:44:36;100725.37;;;2.36;100.00
51759;BME280;66684;47.568;18.734;2023-01-25T12:47:27;100725.72;;;2.31;100.00
51759;BME280;66684;47.568;18.734;2023-01-25T12:49:59;100731.91;;;2.24;100.00
51759;BME280;66684;47.568;18.734;2023-01-25T12:52:38;100729.31;;;2.33;100.00
51759;BME280;66684;47.568;18.734;2023-01-25T12:55:12;100717.28;;;2.13;100.00
51759;BME280;66684;47.568;18.734;2023-01-25T13:01:04;100709.81;;;2.33;100.00
51759;BME280;66684;47.568;18.734;2023-01-25T13:03:49;100712.91;;;2.21;100.00
51759;BME280;66684;47.568;18.734;2023-01-25T13:08:57;100696.91;;;2.32;100.00
51759;BME280;66684;47.568;18.734;2023-01-25T13:11:40;100698.41;;;2.30;100.00
51759;BME280;66684;47.568;18.734;2023-01-25T13:16:46;100698.69;;;1.95;100.00
51759;BME280;66684;47.568;18.734;2023-01-25T13:19:21;100693.28;;;1.92;100.00
51759;BME280;66684;47.568;18.734;2023-01-25T13:22:03;100692.50;;;2.21;100.00
51759;BME280;66684;47.568;18.734;2023-01-25T13:24:31;100688.63;;;2.15;100.00
51759;BME280;66684;47.568;18.734;2023-01-25T13:27:00;100685.47;;;2.37;100.00
51759;BME280;66684;47.568;18.734;2023-01-25T13:32:04;100683.88;;;2.48;100.00
51759;BME280;66684;47.568;18.734;2023-01-25T13:37:18;100688.84;;;2.65;100.00
51759;BME280;66684;47.568;18.734;2023-01-25T13:39:52;100685.44;;;2.75;100.00
51759;BME280;66684;47.568;18.734;2023-01-25T13:44:49;100674.50;;;2.38;100.00
51759;BME280;66684;47.568;18.734;2023-01-25T13:47:20;100684.91;;;2.31;100.00
51759;BME280;66684;47.568;18.734;2023-01-25T13:50:07;100671.47;;;2.42;100.00
51759;BME280;66684;47.568;18.734;2023-01-25T13:52:37;100675.91;;;2.63;100.00
51759;BME280;66684;47.568;18.734;2023-01-25T13:55:16;100672.97;;;2.88;100.00
51759;BME280;66684;47.568;18.734;2023-01-25T13:57:42;100674.97;;;2.72;100.00
51759;BME280;66684;47.568;18.734;2023-01-25T14:00:13;100681.69;;;2.90;100.00
51759;BME280;66684;47.568;18.734;2023-01-25T14:02:42;100672.62;;;2.64;100.00
51759;BME280;66684;47.568;18.734;2023-01-25T14:05:20;100676.75;;;2.73;100.00